Flowes Store, North Carolina
Current Conditions -  °F | °C
As of 10:35 PM on Monday 26 Jan 2015 (Local Time) from KJQF Reporting Station
Scattered Clouds Scattered Clouds  
Wind Chill: 31°   Ceiling: Unl
Heat Index: 37°   Visibility: 10mi
Dew Point: 27°   Wind: 8mph
Humidity: 65%   Direction: 310°NW
Pressure: 29.78"   Gusts: 18mph
Location:  35.3735°N, 80.5212°W
Report Text: KJQF 270335Z AUTO 31007G16KT 10SM SCT065 03/M03 A2978 RMK AO2
Loading
Personal Weather Stations






























Interactive Weather Map New forecast layout! Learn more

10-Day Weather Forecast

Advertisements
Track Severe Weather on mobile